createdAt,value
2023-04-01T00:01:23.483Z,9.44
2023-04-01T00:06:42.181Z,9.44
2023-04-01T00:12:01.113Z,9.5
2023-04-01T00:17:19.753Z,9.44
2023-04-01T00:22:38.398Z,9.38
2023-04-01T00:27:57.120Z,9.31
2023-04-01T00:33:15.747Z,9.31
2023-04-01T00:38:35.505Z,9.31
2023-04-01T00:43:53.860Z,9.31
2023-04-01T00:49:12.588Z,9.38
2023-04-01T00:54:31.286Z,9.38
2023-04-01T00:59:50.031Z,9.38
2023-04-01T01:05:08.616Z,9.31
2023-04-01T01:10:27.235Z,9.31
2023-04-01T01:15:45.964Z,9.31
2023-04-01T01:21:04.633Z,9.31
2023-04-01T01:26:23.348Z,9.38
2023-04-01T01:31:42.031Z,9.31
2023-04-01T01:37:01.298Z,9.31
2023-04-01T01:42:20.625Z,9.38
2023-04-01T01:47:39.098Z,9.31
2023-04-01T01:52:57.726Z,9.38
2023-04-01T01:58:16.344Z,9.38
2023-04-01T02:03:34.586Z,9.44
2023-04-01T02:08:55.164Z,9.44
2023-04-01T02:14:13.988Z,9.5
2023-04-01T02:19:34.938Z,9.56
2023-04-01T02:24:54.522Z,9.5
2023-04-01T02:30:13.230Z,9.5
2023-04-01T02:35:33.027Z,9.56
2023-04-01T02:40:51.565Z,9.56
2023-04-01T02:46:10.188Z,9.5
2023-04-01T02:51:28.941Z,9.5
2023-04-01T02:56:47.639Z,9.56
2023-04-01T03:02:06.402Z,9.38
2023-04-01T03:07:25.109Z,9.38
2023-04-01T03:12:43.930Z,9.44
2023-04-01T03:18:02.631Z,9.5
2023-04-01T03:23:21.340Z,9.56
2023-04-01T03:28:40.092Z,9.5
2023-04-01T03:33:58.726Z,9.44
2023-04-01T03:39:18.382Z,9.56
2023-04-01T03:44:37.025Z,9.5
2023-04-01T03:49:55.623Z,9.5
2023-04-01T03:55:14.305Z,9.56
2023-04-01T04:00:32.660Z,9.63
2023-04-01T04:05:52.237Z,9.69
2023-04-01T04:11:11.094Z,9.63
2023-04-01T04:16:29.682Z,9.5
2023-04-01T04:21:48.146Z,9.5
2023-04-01T04:27:06.789Z,9.56
2023-04-01T04:32:25.092Z,9.56
2023-04-01T04:37:43.563Z,9.63
2023-04-01T04:43:01.917Z,9.63
2023-04-01T04:48:22.806Z,9.5
2023-04-01T04:53:38.392Z,9.44
2023-04-01T04:58:57.108Z,9.31
2023-04-01T05:04:16.279Z,9.25
2023-04-01T05:09:34.823Z,9.19
2023-04-01T05:14:53.651Z,9.06
2023-04-01T05:20:12.033Z,9
2023-04-01T05:25:30.269Z,9
2023-04-01T05:30:49.942Z,8.94
2023-04-01T05:36:08.223Z,8.94
2023-04-01T05:41:26.897Z,9
2023-04-01T05:46:45.927Z,9.06
2023-04-01T05:52:04.586Z,9.13
2023-04-01T05:57:23.412Z,9.19
2023-04-01T06:02:42.138Z,9.31
2023-04-01T06:08:00.345Z,9.31
2023-04-01T06:13:18.969Z,9.38
2023-04-01T06:18:37.388Z,9.38
2023-04-01T06:23:55.654Z,9.44
2023-04-01T06:29:14.439Z,9.44
2023-04-01T06:34:33.161Z,9.44
2023-04-01T06:39:51.844Z,9.44
2023-04-01T06:45:10.528Z,9.5
2023-04-01T06:50:28.326Z,9.5
2023-04-01T06:55:46.916Z,9.5
2023-04-01T07:01:05.674Z,9.56
2023-04-01T07:06:24.385Z,9.56
2023-04-01T07:11:43.292Z,9.63
2023-04-01T07:17:02.187Z,9.63
2023-04-01T07:22:20.835Z,9.69
2023-04-01T07:27:39.467Z,9.69
2023-04-01T07:32:58.254Z,9.63
2023-04-01T07:38:17.004Z,9.63
2023-04-01T07:43:35.314Z,9.69
2023-04-01T07:48:53.919Z,9.63
2023-04-01T07:54:12.627Z,9.56
2023-04-01T07:59:31.212Z,9.5
2023-04-01T08:04:49.999Z,9.5
2023-04-01T08:10:08.646Z,9.63
2023-04-01T08:15:27.273Z,9.63
2023-04-01T08:20:46.032Z,9.75
2023-04-01T08:26:04.685Z,9.69
2023-04-01T08:31:23.048Z,9.69
2023-04-01T08:36:41.659Z,9.5
2023-04-01T08:42:00.581Z,9.44
2023-04-01T08:47:18.944Z,9.38
2023-04-01T08:52:37.077Z,9.44
2023-04-01T08:57:56.734Z,9.56
2023-04-01T09:03:15.902Z,9.56
2023-04-01T09:08:34.401Z,9.56
2023-04-01T09:13:53.092Z,9.63
2023-04-01T09:19:11.427Z,9.63
2023-04-01T09:24:29.694Z,9.69
2023-04-01T09:29:48.374Z,9.69
2023-04-01T09:35:07.109Z,9.75
2023-04-01T09:40:25.673Z,9.69
2023-04-01T09:45:44.642Z,9.63
2023-04-01T09:51:03.093Z,9.69
2023-04-01T09:56:21.682Z,9.69
2023-04-01T10:01:40.193Z,9.75
2023-04-01T10:06:58.534Z,9.81
2023-04-01T10:12:17.128Z,9.94
2023-04-01T10:17:35.917Z,10
2023-04-01T10:22:54.526Z,10.06
2023-04-01T10:28:13.289Z,10.13
2023-04-01T10:33:32.067Z,10.13
2023-04-01T10:38:50.798Z,10.19
2023-04-01T10:44:09.502Z,10.25
2023-04-01T10:49:28.124Z,10
2023-04-01T10:54:46.432Z,9.94
2023-04-01T11:00:05.103Z,9.88
2023-04-01T11:05:23.955Z,9.94
2023-04-01T11:10:43.726Z,10.13
2023-04-01T11:21:07.123Z,10.25
2023-04-01T11:26:25.856Z,10.25
2023-04-01T11:31:44.229Z,10.5
2023-04-01T11:37:02.839Z,10.5
2023-04-01T11:42:22.496Z,10.38
2023-04-01T11:47:41.177Z,10.5
2023-04-01T11:52:59.568Z,10.56
2023-04-01T11:58:17.792Z,10.56
2023-04-01T12:03:36.713Z,10.63
2023-04-01T12:08:55.180Z,10.63
2023-04-01T12:14:13.691Z,10.56
2023-04-01T12:19:32.405Z,10.63
2023-04-01T12:24:51.085Z,10.75
2023-04-01T12:30:09.924Z,10.88
2023-04-01T12:35:28.605Z,10.88
2023-04-01T12:40:47.284Z,10.81
2023-04-01T12:46:06.066Z,10.81
2023-04-01T12:51:24.758Z,10.81
2023-04-01T12:56:43.355Z,10.88
2023-04-01T13:02:04.553Z,10.88
2023-04-01T13:07:23.313Z,11.06
2023-04-01T13:12:44.862Z,11.25
2023-04-01T13:18:03.233Z,11.25
2023-04-01T13:23:21.835Z,11.12
2023-04-01T13:28:40.493Z,11
2023-04-01T13:33:59.054Z,10.94
2023-04-01T13:39:17.799Z,10.94
2023-04-01T13:44:36.594Z,11.06
2023-04-01T13:49:54.908Z,11.06
2023-04-01T13:55:13.728Z,11.25
2023-04-01T14:00:32.868Z,11.38
2023-04-01T14:05:50.901Z,11.38
2023-04-01T14:11:09.597Z,11.44
2023-04-01T14:16:28.347Z,11.44
2023-04-01T14:21:46.916Z,11.38
2023-04-01T14:27:05.649Z,11.38
2023-04-01T14:32:24.420Z,11.31
2023-04-01T14:37:42.846Z,11.19
2023-04-01T14:43:01.397Z,11.06
2023-04-01T14:48:20.013Z,11.06
2023-04-01T14:53:38.197Z,11.06
2023-04-01T14:58:56.862Z,11.06
2023-04-01T15:04:15.623Z,11.06
2023-04-01T15:09:34.206Z,11
2023-04-01T15:14:52.872Z,11
2023-04-01T15:30:22.653Z,10.94
2023-04-01T15:35:41.340Z,11
2023-04-01T15:41:00.137Z,11
2023-04-01T15:46:18.989Z,11
2023-04-01T15:51:37.208Z,11
2023-04-01T15:56:55.822Z,11.06
2023-04-01T16:02:14.095Z,11.06
2023-04-01T16:07:32.541Z,10.88
2023-04-01T16:12:51.327Z,10.94
2023-04-01T16:18:09.976Z,10.88
2023-04-01T16:23:28.510Z,10.88
2023-04-01T16:28:47.093Z,10.81
2023-04-01T16:34:05.734Z,10.88
2023-04-01T16:39:24.010Z,10.94
2023-04-01T16:44:42.951Z,11
2023-04-01T16:50:01.442Z,11
2023-04-01T16:55:20.009Z,10.88
2023-04-01T17:00:39.079Z,10.94
2023-04-01T17:05:57.560Z,10.88
2023-04-01T17:11:17.322Z,10.81
2023-04-01T17:16:35.909Z,10.81
2023-04-01T17:21:54.689Z,10.75
2023-04-01T17:27:13.355Z,10.75
2023-04-01T17:32:32.090Z,10.81
2023-04-01T17:37:50.761Z,10.81
2023-04-01T17:43:09.281Z,10.5
2023-04-01T17:48:27.358Z,10.25
2023-04-01T17:53:46.089Z,10.19
2023-04-01T17:59:04.805Z,10.06
2023-04-01T18:04:23.463Z,9.88
2023-04-01T18:09:41.996Z,9.75
2023-04-01T18:15:00.629Z,9.81
2023-04-01T18:20:19.162Z,9.88
2023-04-01T18:25:37.456Z,9.81
2023-04-01T18:30:56.044Z,9.69
2023-04-01T18:36:14.874Z,9.56
2023-04-01T18:41:33.407Z,9.5
2023-04-01T18:46:52.110Z,9.31
2023-04-01T18:52:11.862Z,9.25
2023-04-01T18:57:30.232Z,9.25
2023-04-01T19:02:48.800Z,9.25
2023-04-01T19:08:07.309Z,9.25
2023-04-01T19:13:25.899Z,9.25
2023-04-01T19:18:45.475Z,9.19
2023-04-01T19:24:04.367Z,9.19
2023-04-01T19:29:23.058Z,9.13
2023-04-01T19:34:41.633Z,9
2023-04-01T19:40:00.350Z,8.88
2023-04-01T19:45:19.146Z,8.81
2023-04-01T19:50:37.732Z,8.81
2023-04-01T19:55:55.857Z,8.75
2023-04-01T20:01:14.656Z,8.69
2023-04-01T20:06:33.508Z,8.69
2023-04-01T20:11:52.601Z,8.69
2023-04-01T20:22:09.748Z,8.75
2023-04-01T20:27:28.680Z,8.75
2023-04-01T20:32:47.676Z,8.75
2023-04-01T20:43:05.081Z,8.81
2023-04-01T20:48:23.459Z,8.88
2023-04-01T20:53:42.114Z,8.88
2023-04-01T20:59:00.853Z,8.88
2023-04-01T21:04:19.367Z,8.88
2023-04-01T21:09:37.918Z,8.94
2023-04-01T21:14:56.214Z,8.94
2023-04-01T21:20:14.558Z,8.81
2023-04-01T21:30:39.794Z,8.81
2023-04-01T21:35:57.893Z,8.75
2023-04-01T21:41:16.446Z,8.75
2023-04-01T21:46:35.181Z,8.81
2023-04-01T21:51:53.877Z,8.69
2023-04-01T21:57:12.617Z,8.69
2023-04-01T22:02:31.431Z,8.69
2023-04-01T22:07:49.497Z,8.69
2023-04-01T22:13:07.627Z,8.63
2023-04-01T22:18:26.509Z,8.63
2023-04-01T22:23:45.069Z,8.56
2023-04-01T22:29:03.753Z,8.56
2023-04-01T22:34:22.621Z,8.63
2023-04-01T22:39:41.241Z,8.56
2023-04-01T22:44:59.525Z,8.56
2023-04-01T22:50:19.243Z,8.56
2023-04-01T22:55:37.844Z,8.56
2023-04-01T23:00:56.589Z,8.56
2023-04-01T23:06:15.335Z,8.5
2023-04-01T23:11:33.932Z,8.5
2023-04-01T23:16:52.073Z,8.5
2023-04-01T23:22:10.866Z,8.5
2023-04-01T23:27:30.473Z,8.44
2023-04-01T23:32:49.089Z,8.38
2023-04-01T23:38:07.885Z,8.31
2023-04-01T23:43:26.753Z,8.25
2023-04-01T23:48:47.411Z,8.25
2023-04-01T23:54:06.028Z,8.19
2023-04-01T23:59:24.818Z,8.25
